createdAt,value
2023-02-19T00:01:44.377Z,2.37
2023-02-19T00:04:16.454Z,2.36
2023-02-19T00:06:44.347Z,2.38
2023-02-19T00:09:13.370Z,2.38
2023-02-19T00:11:41.025Z,2.35
2023-02-19T00:14:08.240Z,2.33
2023-02-19T00:16:40.139Z,2.35
2023-02-19T00:19:11.800Z,2.44
2023-02-19T00:21:38.685Z,2.39
2023-02-19T00:24:07.449Z,2.41
2023-02-19T00:26:34.887Z,2.40
2023-02-19T00:29:02.160Z,2.49
2023-02-19T00:31:37.972Z,2.54
2023-02-19T00:34:06.357Z,2.47
2023-02-19T00:36:36.663Z,2.48
2023-02-19T00:39:05.198Z,2.44
2023-02-19T00:41:32.222Z,2.40
2023-02-19T00:44:04.770Z,2.34
2023-02-19T00:46:34.366Z,2.32
2023-02-19T00:49:03.804Z,2.33
2023-02-19T00:51:33.779Z,2.33
2023-02-19T00:54:00.681Z,2.29
2023-02-19T00:56:28.122Z,2.41
2023-02-19T00:58:56.063Z,2.37
2023-02-19T01:01:22.891Z,2.41
2023-02-19T01:03:51.018Z,2.38
2023-02-19T01:06:20.324Z,2.42
2023-02-19T01:08:47.237Z,2.39
2023-02-19T01:11:14.376Z,2.35
2023-02-19T01:13:41.846Z,2.39
2023-02-19T01:16:11.456Z,2.38
2023-02-19T01:18:38.790Z,2.40
2023-02-19T01:21:08.078Z,2.32
2023-02-19T01:23:35.992Z,2.20
2023-02-19T01:26:15.699Z,2.12
2023-02-19T01:28:43.067Z,2.14
2023-02-19T01:31:13.665Z,2.13
2023-02-19T01:33:40.929Z,2.02
2023-02-19T01:36:07.898Z,1.99
2023-02-19T01:38:34.673Z,1.90
2023-02-19T01:41:04.440Z,1.87
2023-02-19T01:43:35.484Z,1.88
2023-02-19T01:46:02.402Z,1.81
2023-02-19T01:48:39.721Z,1.77
2023-02-19T01:51:11.316Z,1.66
2023-02-19T01:53:42.054Z,1.71
2023-02-19T01:56:10.901Z,1.78
2023-02-19T01:58:38.512Z,1.76
2023-02-19T02:01:08.585Z,1.74
2023-02-19T02:03:38.205Z,1.72
2023-02-19T02:06:12.538Z,1.71
2023-02-19T02:08:58.403Z,1.69
2023-02-19T02:11:25.457Z,1.67
2023-02-19T02:13:52.564Z,1.65
2023-02-19T02:16:29.082Z,1.67
2023-02-19T02:19:24.132Z,1.68
2023-02-19T02:22:17.932Z,1.67
2023-02-19T02:25:07.520Z,1.63
2023-02-19T02:27:49.249Z,1.59
2023-02-19T02:30:34.061Z,1.45
2023-02-19T02:33:16.736Z,1.49
2023-02-19T02:35:56.626Z,1.47
2023-02-19T02:38:28.239Z,1.49
2023-02-19T02:40:56.851Z,1.51
2023-02-19T02:43:25.544Z,1.53
2023-02-19T02:45:52.516Z,1.53
2023-02-19T02:48:31.353Z,1.40
2023-02-19T02:51:21.373Z,1.38
2023-02-19T02:54:25.973Z,1.36
2023-02-19T02:56:55.604Z,1.36
2023-02-19T02:59:26.004Z,1.34
2023-02-19T03:02:11.780Z,1.31
2023-02-19T03:05:08.817Z,1.30
2023-02-19T03:07:47.674Z,1.35
2023-02-19T03:10:28.123Z,1.34
2023-02-19T03:13:18.709Z,1.34
2023-02-19T03:16:20.496Z,1.38
2023-02-19T03:19:11.198Z,1.39
2023-02-19T03:21:41.748Z,1.40
2023-02-19T03:24:30.673Z,1.36
2023-02-19T03:27:02.058Z,1.43
2023-02-19T03:29:38.915Z,1.41
2023-02-19T03:32:13.705Z,1.38
2023-02-19T03:34:56.976Z,1.35
2023-02-19T03:37:33.441Z,1.28
2023-02-19T03:40:01.013Z,1.21
2023-02-19T03:43:03.259Z,1.27
2023-02-19T03:45:38.996Z,1.37
2023-02-19T03:48:38.186Z,1.35
2023-02-19T03:51:41.886Z,1.38
2023-02-19T03:54:19.660Z,1.38
2023-02-19T03:56:57.176Z,1.38
2023-02-19T03:59:48.968Z,1.43
2023-02-19T04:02:23.371Z,1.40
2023-02-19T04:05:07.785Z,1.42
2023-02-19T04:07:40.345Z,1.43
2023-02-19T04:10:10.036Z,1.41
2023-02-19T04:12:46.256Z,1.42
2023-02-19T04:15:17.952Z,1.33
2023-02-19T04:17:49.930Z,1.30
2023-02-19T04:20:18.343Z,1.29
2023-02-19T04:22:46.353Z,1.30
2023-02-19T04:25:14.072Z,1.34
2023-02-19T04:27:44.370Z,1.36
2023-02-19T04:30:13.606Z,1.35
2023-02-19T04:32:40.286Z,1.31
2023-02-19T04:35:07.135Z,1.31
2023-02-19T04:37:33.828Z,1.28
2023-02-19T04:40:00.599Z,1.29
2023-02-19T04:42:27.323Z,1.30
2023-02-19T04:44:54.067Z,1.31
2023-02-19T04:47:20.731Z,1.35
2023-02-19T04:49:47.463Z,1.48
2023-02-19T04:52:14.290Z,1.47
2023-02-19T04:54:41.055Z,1.47
2023-02-19T04:57:08.018Z,1.43
2023-02-19T04:59:34.809Z,1.47
2023-02-19T05:02:01.705Z,1.45
2023-02-19T05:04:28.373Z,1.41
2023-02-19T05:06:55.134Z,1.41
2023-02-19T05:09:21.834Z,1.42
2023-02-19T05:11:48.579Z,1.46
2023-02-19T05:14:15.372Z,1.39
2023-02-19T05:16:42.104Z,1.42
2023-02-19T05:19:11.565Z,1.37
2023-02-19T05:21:40.433Z,1.38
2023-02-19T05:24:07.692Z,1.40
2023-02-19T05:26:35.149Z,1.37
2023-02-19T05:29:02.825Z,1.32
2023-02-19T05:31:29.966Z,1.16
2023-02-19T05:33:56.783Z,1.10
2023-02-19T05:36:23.762Z,1.11
2023-02-19T05:38:55.185Z,1.09
2023-02-19T05:41:24.955Z,1.02
2023-02-19T05:43:52.758Z,1.06
2023-02-19T05:46:22.072Z,1.05
2023-02-19T05:48:49.840Z,1.07
2023-02-19T05:51:19.034Z,1.06
2023-02-19T05:53:46.694Z,1.09
2023-02-19T05:56:35.249Z,1.07
2023-02-19T05:59:23.609Z,1.14
2023-02-19T06:01:51.927Z,1.20
2023-02-19T06:04:20.015Z,1.25
2023-02-19T06:06:47.887Z,1.29
2023-02-19T06:09:14.561Z,1.38
2023-02-19T06:11:43.412Z,1.40
2023-02-19T06:14:14.585Z,1.46
2023-02-19T06:16:41.958Z,1.49
2023-02-19T06:19:08.733Z,1.50
2023-02-19T06:21:35.940Z,1.54
2023-02-19T06:24:07.492Z,1.59
2023-02-19T06:26:34.583Z,1.57
2023-02-19T06:29:01.329Z,1.57
2023-02-19T06:31:28.215Z,1.59
2023-02-19T06:33:55.407Z,1.57
2023-02-19T06:36:23.505Z,1.56
2023-02-19T06:38:50.767Z,1.57
2023-02-19T06:41:17.619Z,1.59
2023-02-19T06:43:44.662Z,1.59
2023-02-19T06:46:13.018Z,1.59
2023-02-19T06:48:41.847Z,1.56
2023-02-19T06:51:12.871Z,1.60
2023-02-19T06:53:39.831Z,1.73
2023-02-19T06:56:20.841Z,1.66
2023-02-19T06:58:47.552Z,1.70
2023-02-19T07:01:14.331Z,1.60
2023-02-19T07:03:41.043Z,1.58
2023-02-19T07:06:08.033Z,1.61
2023-02-19T07:08:34.794Z,1.66
2023-02-19T07:11:01.583Z,1.72
2023-02-19T07:13:28.301Z,1.75
2023-02-19T07:16:03.076Z,1.77
2023-02-19T07:18:30.906Z,1.78
2023-02-19T07:21:05.354Z,1.78
2023-02-19T07:23:32.370Z,1.78
2023-02-19T07:25:59.177Z,1.80
2023-02-19T07:28:26.435Z,1.80
2023-02-19T07:30:53.493Z,1.80
2023-02-19T07:33:20.485Z,1.81
2023-02-19T07:35:51.245Z,1.84
2023-02-19T07:38:19.926Z,1.86
2023-02-19T07:40:56.969Z,1.88
2023-02-19T07:43:24.962Z,1.90
2023-02-19T07:45:52.873Z,1.94
2023-02-19T07:48:20.178Z,1.97
2023-02-19T07:50:59.371Z,1.97
2023-02-19T07:53:27.199Z,2.00
2023-02-19T07:55:54.529Z,2.01
2023-02-19T07:58:21.346Z,2.06
2023-02-19T08:00:48.024Z,2.12
2023-02-19T08:03:14.779Z,2.19
2023-02-19T08:05:43.096Z,2.29
2023-02-19T08:08:12.400Z,2.31
2023-02-19T08:10:58.084Z,2.35
2023-02-19T08:13:27.364Z,2.43
2023-02-19T08:16:19.990Z,2.53
2023-02-19T08:18:49.095Z,2.62
2023-02-19T08:21:18.278Z,2.70
2023-02-19T08:23:46.383Z,2.73
2023-02-19T08:26:13.267Z,2.74
2023-02-19T08:28:40.060Z,2.77
2023-02-19T08:31:09.823Z,2.79
2023-02-19T08:33:37.530Z,2.79
2023-02-19T08:36:06.132Z,2.81
2023-02-19T08:38:35.850Z,2.86
2023-02-19T08:41:11.403Z,2.88
2023-02-19T08:43:39.041Z,2.85
2023-02-19T08:46:07.290Z,2.83
2023-02-19T08:48:34.334Z,2.82
2023-02-19T08:51:04.175Z,2.85
2023-02-19T08:53:32.306Z,2.90
2023-02-19T08:55:59.136Z,2.91
2023-02-19T08:58:26.386Z,2.86
2023-02-19T09:00:53.585Z,2.90
2023-02-19T09:03:20.444Z,2.84
2023-02-19T09:05:47.112Z,2.87
2023-02-19T09:08:13.908Z,2.90
2023-02-19T09:10:40.608Z,2.87
2023-02-19T09:13:07.536Z,2.85
2023-02-19T09:15:34.233Z,2.83
2023-02-19T09:18:01.042Z,2.82
2023-02-19T09:20:27.729Z,2.78
2023-02-19T09:22:59.020Z,2.75
2023-02-19T09:25:26.020Z,2.76
2023-02-19T09:27:56.549Z,2.78
2023-02-19T09:30:23.542Z,2.78
2023-02-19T09:32:50.336Z,2.81
2023-02-19T09:35:17.127Z,2.81
2023-02-19T09:37:43.825Z,2.78
2023-02-19T09:40:11.390Z,2.70
2023-02-19T09:42:41.175Z,2.69
2023-02-19T09:45:09.598Z,2.61
2023-02-19T09:47:36.338Z,2.66
2023-02-19T09:50:07.987Z,2.67
2023-02-19T09:52:43.274Z,2.70
2023-02-19T09:55:14.617Z,2.70
2023-02-19T09:57:41.813Z,2.76
2023-02-19T10:00:11.478Z,2.72
2023-02-19T10:02:39.054Z,2.78
2023-02-19T10:05:14.383Z,2.83
2023-02-19T10:07:47.830Z,2.87
2023-02-19T10:10:14.660Z,2.92
2023-02-19T10:12:46.788Z,2.98
2023-02-19T10:15:25.766Z,3.10
2023-02-19T10:17:52.722Z,3.15
2023-02-19T10:20:24.673Z,3.20
2023-02-19T10:23:03.606Z,3.30
2023-02-19T10:25:31.961Z,3.36
2023-02-19T10:28:00.239Z,3.48
2023-02-19T10:30:33.321Z,3.62
2023-02-19T10:33:12.459Z,3.75
2023-02-19T10:35:54.734Z,3.86
2023-02-19T10:38:43.747Z,3.89
2023-02-19T10:41:23.586Z,3.97
2023-02-19T10:43:55.681Z,3.97
2023-02-19T10:46:26.293Z,4.01
2023-02-19T10:48:59.466Z,4.07
2023-02-19T10:51:36.330Z,4.11
2023-02-19T10:54:06.346Z,4.15
2023-02-19T10:56:34.080Z,4.15
2023-02-19T10:59:24.488Z,4.22
2023-02-19T11:02:00.166Z,4.31
2023-02-19T11:04:34.077Z,4.44
2023-02-19T11:07:11.803Z,4.57
2023-02-19T11:09:40.850Z,4.64
2023-02-19T11:12:09.642Z,4.69
2023-02-19T11:14:36.700Z,4.74
2023-02-19T11:17:05.837Z,4.76
2023-02-19T11:19:42.712Z,4.76
2023-02-19T11:22:34.384Z,4.75
2023-02-19T11:25:25.393Z,4.80
2023-02-19T11:28:07.366Z,4.81
2023-02-19T11:30:44.556Z,4.80
2023-02-19T11:33:17.244Z,4.85
2023-02-19T11:35:44.906Z,4.83
2023-02-19T11:38:13.718Z,4.86
2023-02-19T11:40:44.058Z,4.90
2023-02-19T11:43:42.875Z,4.93
2023-02-19T11:46:43.153Z,4.87
2023-02-19T11:49:41.031Z,4.87
2023-02-19T11:52:19.757Z,4.86
2023-02-19T11:54:54.651Z,4.87
2023-02-19T11:57:47.750Z,4.91
2023-02-19T12:00:24.798Z,4.86
2023-02-19T12:03:20.793Z,4.91
2023-02-19T12:05:56.614Z,4.91
2023-02-19T12:08:32.056Z,4.94
2023-02-19T12:11:01.393Z,5.04
2023-02-19T12:13:56.058Z,5.10
2023-02-19T12:16:28.546Z,5.21
2023-02-19T12:19:26.542Z,5.33
2023-02-19T12:22:16.647Z,5.46
2023-02-19T12:24:55.121Z,5.53
2023-02-19T12:27:40.212Z,5.60
2023-02-19T12:30:29.548Z,5.73
2023-02-19T12:33:18.585Z,5.86
2023-02-19T12:36:05.673Z,5.95
2023-02-19T12:38:43.278Z,6.02
2023-02-19T12:41:37.890Z,6.07
2023-02-19T12:44:12.126Z,6.12
2023-02-19T12:46:43.094Z,6.18
2023-02-19T12:49:33.187Z,6.23
2023-02-19T12:52:20.591Z,6.24
2023-02-19T12:54:55.997Z,6.27
2023-02-19T12:57:31.626Z,6.28
2023-02-19T13:00:07.408Z,6.31
2023-02-19T13:02:39.900Z,6.33
2023-02-19T13:05:20.244Z,6.32
2023-02-19T13:08:02.481Z,6.30
2023-02-19T13:10:39.359Z,6.33
2023-02-19T13:13:12.960Z,6.34
2023-02-19T13:15:46.230Z,6.31
2023-02-19T13:18:18.762Z,6.32
2023-02-19T13:20:48.779Z,6.28
2023-02-19T13:23:45.877Z,6.30
2023-02-19T13:26:38.724Z,6.32
2023-02-19T13:29:08.350Z,6.34
2023-02-19T13:31:53.192Z,6.37
2023-02-19T13:34:25.923Z,6.33
2023-02-19T13:36:54.438Z,6.32
2023-02-19T13:39:22.562Z,6.33
2023-02-19T13:41:52.152Z,6.37
2023-02-19T13:44:21.995Z,6.41
2023-02-19T13:46:50.657Z,6.45
2023-02-19T13:49:42.088Z,6.51
2023-02-19T13:52:33.203Z,6.58
2023-02-19T13:55:40.763Z,6.62
2023-02-19T13:58:33.195Z,6.68
2023-02-19T14:01:08.593Z,6.71
2023-02-19T14:03:55.222Z,6.72
2023-02-19T14:06:21.973Z,6.72
2023-02-19T14:08:53.450Z,6.76
2023-02-19T14:11:43.058Z,6.83
2023-02-19T14:14:37.730Z,6.91
2023-02-19T14:17:08.655Z,6.99
2023-02-19T14:19:50.745Z,7.07
2023-02-19T14:23:05.743Z,7.21
2023-02-19T14:25:49.374Z,7.32
2023-02-19T14:28:30.696Z,7.41
2023-02-19T14:31:11.447Z,7.48
2023-02-19T14:33:43.238Z,7.61
2023-02-19T14:36:31.361Z,7.78
2023-02-19T14:39:02.487Z,7.82
2023-02-19T14:41:32.827Z,7.86
2023-02-19T14:44:02.093Z,7.85
2023-02-19T14:46:37.237Z,7.87
2023-02-19T14:49:23.792Z,7.89
2023-02-19T14:51:55.496Z,7.90
2023-02-19T14:54:43.393Z,7.93
2023-02-19T14:57:17.546Z,7.96
2023-02-19T15:00:01.676Z,8.06
2023-02-19T15:02:30.964Z,8.04
2023-02-19T15:04:58.662Z,8.05
2023-02-19T15:07:29.971Z,8.05
2023-02-19T15:10:04.890Z,8.10
2023-02-19T15:12:39.852Z,8.04
2023-02-19T15:15:07.225Z,8.00
2023-02-19T15:17:38.113Z,7.98
2023-02-19T15:20:11.223Z,7.97
2023-02-19T15:22:41.434Z,7.98
2023-02-19T15:25:12.264Z,8.04
2023-02-19T15:27:39.119Z,8.01
2023-02-19T15:30:19.217Z,8.03
2023-02-19T15:32:59.954Z,8.09
2023-02-19T15:35:28.808Z,8.12
2023-02-19T15:37:55.775Z,8.12
2023-02-19T15:40:29.202Z,8.13
2023-02-19T15:42:57.311Z,8.15
2023-02-19T15:45:41.599Z,8.16
2023-02-19T15:48:19.645Z,8.18
2023-02-19T15:50:53.375Z,8.15
2023-02-19T15:53:34.095Z,8.21
2023-02-19T15:56:05.785Z,8.17
2023-02-19T15:58:42.835Z,8.25
2023-02-19T16:01:26.938Z,8.35
2023-02-19T16:03:55.405Z,8.43
2023-02-19T16:06:24.497Z,8.42
2023-02-19T16:09:07.021Z,8.49
2023-02-19T16:11:48.590Z,8.60
2023-02-19T16:14:31.766Z,8.70
2023-02-19T16:17:10.755Z,8.76
2023-02-19T16:19:45.774Z,8.83
2023-02-19T16:22:17.614Z,8.95
2023-02-19T16:24:47.215Z,9.01
2023-02-19T16:27:27.254Z,9.02
2023-02-19T16:29:54.552Z,9.02
2023-02-19T16:32:21.442Z,9.08
2023-02-19T16:34:50.638Z,9.12
2023-02-19T16:37:37.305Z,9.14
2023-02-19T16:40:14.076Z,9.04
2023-02-19T16:42:48.645Z,8.99
2023-02-19T16:45:16.101Z,8.98
2023-02-19T16:47:47.296Z,8.93
2023-02-19T16:50:23.270Z,8.83
2023-02-19T16:52:55.207Z,8.74
2023-02-19T16:55:22.770Z,8.65
2023-02-19T16:57:49.803Z,8.62
2023-02-19T17:00:18.103Z,9.03
2023-02-19T17:02:47.346Z,9.39
2023-02-19T17:05:14.793Z,9.35
2023-02-19T17:07:42.293Z,9.58
2023-02-19T17:10:13.966Z,9.51
2023-02-19T17:12:40.642Z,9.39
2023-02-19T17:15:07.730Z,9.66
2023-02-19T17:17:34.756Z,9.83
2023-02-19T17:20:01.416Z,9.85
2023-02-19T17:22:28.153Z,9.81
2023-02-19T17:24:55.207Z,9.86
2023-02-19T17:27:21.941Z,9.77
2023-02-19T17:29:48.605Z,9.69
2023-02-19T17:32:15.545Z,9.79
2023-02-19T17:34:42.578Z,9.82
2023-02-19T17:37:09.307Z,9.89
2023-02-19T17:39:36.035Z,9.93
2023-02-19T17:42:03.425Z,9.87
2023-02-19T17:44:30.235Z,9.81
2023-02-19T17:46:57.052Z,9.84
2023-02-19T17:49:24.054Z,9.85
2023-02-19T17:51:50.771Z,9.86
2023-02-19T17:54:17.431Z,9.84
2023-02-19T17:56:46.091Z,9.99
2023-02-19T17:59:13.217Z,10.07
2023-02-19T18:01:40.090Z,10.16
2023-02-19T18:04:07.180Z,10.16
2023-02-19T18:06:34.940Z,10.26
2023-02-19T18:09:01.660Z,10.21
2023-02-19T18:11:28.421Z,10.17
2023-02-19T18:13:55.620Z,10.18
2023-02-19T18:16:22.697Z,10.02
2023-02-19T18:18:49.405Z,9.90
2023-02-19T18:21:16.296Z,9.81
2023-02-19T18:23:43.302Z,9.75
2023-02-19T18:26:11.645Z,9.77
2023-02-19T18:28:38.586Z,9.71
2023-02-19T18:31:05.957Z,9.82
2023-02-19T18:33:34.082Z,10.02
2023-02-19T18:36:00.956Z,9.85
2023-02-19T18:38:28.018Z,9.85
2023-02-19T18:40:55.919Z,9.90
2023-02-19T18:43:24.147Z,9.72
2023-02-19T18:45:51.480Z,9.65
2023-02-19T18:48:18.323Z,9.66
2023-02-19T18:50:45.190Z,9.76
2023-02-19T18:53:12.248Z,9.79
2023-02-19T18:55:38.913Z,9.83
2023-02-19T18:58:05.590Z,9.87
2023-02-19T19:00:32.266Z,9.81
2023-02-19T19:02:59.632Z,9.89
2023-02-19T19:05:26.801Z,9.81
2023-02-19T19:07:59.310Z,9.79
2023-02-19T19:10:27.707Z,9.76
2023-02-19T19:12:54.661Z,9.79
2023-02-19T19:15:21.987Z,9.78
2023-02-19T19:17:49.401Z,9.76
2023-02-19T19:20:22.587Z,9.76
2023-02-19T19:22:51.629Z,9.74
2023-02-19T19:25:19.872Z,9.65
2023-02-19T19:27:46.974Z,9.56
2023-02-19T19:30:14.123Z,9.48
2023-02-19T19:32:40.879Z,9.49
2023-02-19T19:35:07.888Z,9.50
2023-02-19T19:37:35.274Z,9.54
2023-02-19T19:40:03.860Z,9.53
2023-02-19T19:42:30.571Z,9.47
2023-02-19T19:44:57.238Z,9.41
2023-02-19T19:47:23.941Z,9.31
2023-02-19T19:49:50.671Z,9.30
2023-02-19T19:52:17.429Z,9.28
2023-02-19T19:54:44.613Z,9.30
2023-02-19T19:57:11.550Z,9.27
2023-02-19T19:59:39.536Z,9.12
2023-02-19T20:02:07.672Z,8.93
2023-02-19T20:04:34.644Z,8.83
2023-02-19T20:07:01.849Z,8.82
2023-02-19T20:09:29.136Z,8.73
2023-02-19T20:11:57.036Z,8.70
2023-02-19T20:14:25.172Z,8.65
2023-02-19T20:16:53.114Z,8.57
2023-02-19T20:19:21.116Z,8.49
2023-02-19T20:21:49.935Z,8.49
2023-02-19T20:24:19.446Z,8.53
2023-02-19T20:26:46.265Z,8.54
2023-02-19T20:29:13.127Z,8.49
2023-02-19T20:31:40.340Z,8.56
2023-02-19T20:34:07.722Z,8.42
2023-02-19T20:36:41.743Z,8.33
2023-02-19T20:39:08.570Z,8.28
2023-02-19T20:41:35.257Z,8.24
2023-02-19T20:44:02.197Z,8.28
2023-02-19T20:46:29.999Z,8.27
2023-02-19T20:48:57.283Z,8.27
2023-02-19T20:51:24.014Z,8.27
2023-02-19T20:53:50.882Z,8.25
2023-02-19T20:56:17.560Z,8.28
2023-02-19T20:58:44.366Z,8.27
2023-02-19T21:01:12.096Z,8.23
2023-02-19T21:03:38.787Z,8.34
2023-02-19T21:06:06.246Z,8.28
2023-02-19T21:08:33.010Z,8.28
2023-02-19T21:10:59.732Z,8.32
2023-02-19T21:13:27.054Z,8.29
2023-02-19T21:15:54.645Z,8.26
2023-02-19T21:18:21.459Z,8.26
2023-02-19T21:20:48.096Z,8.33
2023-02-19T21:23:14.967Z,8.27
2023-02-19T21:25:41.634Z,8.27
2023-02-19T21:28:09.722Z,8.32
2023-02-19T21:30:36.406Z,8.27
2023-02-19T21:33:03.567Z,8.34
2023-02-19T21:35:30.589Z,8.34
2023-02-19T21:37:57.350Z,8.28
2023-02-19T21:40:25.326Z,8.30
2023-02-19T21:42:51.992Z,8.40
2023-02-19T21:45:18.731Z,8.41
2023-02-19T21:47:45.551Z,8.46
2023-02-19T21:50:12.580Z,8.47
2023-02-19T21:52:39.261Z,8.47
2023-02-19T21:55:06.400Z,8.50
2023-02-19T21:57:33.212Z,8.48
2023-02-19T22:00:00.004Z,8.55
2023-02-19T22:02:26.645Z,8.63
2023-02-19T22:04:54.114Z,8.57
2023-02-19T22:07:21.838Z,8.71
2023-02-19T22:09:49.643Z,8.68
2023-02-19T22:12:17.441Z,8.68
2023-02-19T22:14:44.346Z,8.65
2023-02-19T22:17:11.775Z,8.68
2023-02-19T22:19:39.237Z,8.74
2023-02-19T22:22:06.273Z,8.76
2023-02-19T22:24:33.091Z,8.67
2023-02-19T22:26:59.869Z,8.70
2023-02-19T22:29:26.609Z,8.61
2023-02-19T22:31:53.476Z,8.57
2023-02-19T22:34:20.211Z,8.70
2023-02-19T22:36:47.049Z,8.67
2023-02-19T22:39:25.613Z,8.63
2023-02-19T22:41:53.330Z,8.50
2023-02-19T22:44:20.431Z,8.43
2023-02-19T22:46:50.171Z,8.46
2023-02-19T22:49:17.773Z,8.51
2023-02-19T22:52:05.628Z,8.55
2023-02-19T22:54:32.359Z,8.55
2023-02-19T22:56:59.015Z,8.52
2023-02-19T22:59:25.727Z,8.50
2023-02-19T23:01:53.172Z,8.55
2023-02-19T23:04:21.693Z,8.53
2023-02-19T23:06:48.567Z,8.55
2023-02-19T23:09:24.878Z,8.60
2023-02-19T23:11:52.585Z,8.59
2023-02-19T23:14:21.578Z,8.60
2023-02-19T23:16:48.384Z,8.59
2023-02-19T23:19:16.088Z,8.58
2023-02-19T23:21:45.662Z,8.51
2023-02-19T23:24:13.558Z,8.52
2023-02-19T23:26:48.744Z,8.57
2023-02-19T23:29:17.881Z,8.58
2023-02-19T23:31:44.662Z,8.58
2023-02-19T23:34:11.670Z,8.56
2023-02-19T23:36:46.028Z,8.53
2023-02-19T23:39:14.466Z,8.46
2023-02-19T23:41:52.543Z,8.59
2023-02-19T23:44:20.887Z,8.50
2023-02-19T23:46:48.230Z,8.52
2023-02-19T23:49:15.466Z,8.45
2023-02-19T23:51:42.172Z,8.43
2023-02-19T23:54:15.321Z,8.42
2023-02-19T23:56:42.095Z,8.52
